createdAt,value
2022-11-10T00:15:38.999Z,13.1
2022-11-10T00:45:57.169Z,10.2
2022-11-10T01:16:14.753Z,4.5
2022-11-10T01:46:33.261Z,10.2
2022-11-10T02:16:51.800Z,5.8
2022-11-10T02:47:08.978Z,4.5
2022-11-10T03:17:27.336Z,9.1
2022-11-10T03:47:44.675Z,4.7
2022-11-10T04:48:20.741Z,8.5
2022-11-10T05:18:38.792Z,8.6
2022-11-10T05:48:55.887Z,8.8
2022-11-10T06:19:12.672Z,9.1
2022-11-10T06:49:29.973Z,9.9
2022-11-10T07:19:49.104Z,8
2022-11-10T07:50:09.681Z,13.6
2022-11-10T08:20:38.171Z,5.8
2022-11-10T08:50:53.941Z,5.3
2022-11-10T09:21:11.932Z,8.9
2022-11-10T09:51:32.003Z,8.8
2022-11-10T10:21:50.891Z,3.5
2022-11-10T10:52:11.252Z,2.8
2022-11-10T11:22:31.782Z,5.5
2022-11-10T11:52:51.215Z,11.6
2022-11-10T12:23:08.326Z,7.2
2022-11-10T12:53:24.559Z,3.9
2022-11-10T13:23:42.604Z,10.6
2022-11-10T13:54:00.240Z,4.6
2022-11-10T14:24:17.608Z,5.9
2022-11-10T14:54:33.911Z,7.6
2022-11-10T15:24:52.775Z,7.3
2022-11-10T15:55:09.213Z,9.9
2022-11-10T16:25:27.806Z,10.9
2022-11-10T16:55:44.692Z,10.2
2022-11-10T17:26:02.441Z,14.2
2022-11-10T17:56:18.252Z,13.5
2022-11-10T18:26:35.775Z,16.4
2022-11-10T18:56:53.722Z,20.7
2022-11-10T19:27:11.804Z,16.2
2022-11-10T19:57:28.216Z,29.8
2022-11-10T20:27:45.535Z,19.4
2022-11-10T20:58:04.567Z,19.2
2022-11-10T21:28:21.473Z,26.6
2022-11-10T21:58:38.110Z,27.8
2022-11-10T22:28:55.047Z,19.4
2022-11-10T22:59:11.883Z,27.2
2022-11-10T23:29:28.944Z,29.5
